createdAt,value
2018-03-30T00:01:53.573Z,37.43
2018-03-30T00:04:20.377Z,34.20
2018-03-30T00:06:46.419Z,36.10
2018-03-30T00:09:24.934Z,37.57
2018-03-30T00:11:50.953Z,35.13
2018-03-30T00:14:16.980Z,36.07
2018-03-30T00:16:43.070Z,37.60
2018-03-30T00:19:09.129Z,37.90
2018-03-30T00:21:35.223Z,40.13
2018-03-30T00:24:01.391Z,39.80
2018-03-30T00:26:27.457Z,38.73
2018-03-30T00:28:54.259Z,38.17
2018-03-30T00:31:20.338Z,37.60
2018-03-30T00:33:46.372Z,38.10
2018-03-30T00:36:12.411Z,41.97
2018-03-30T00:38:38.472Z,46.03
2018-03-30T00:41:05.302Z,43.60
2018-03-30T00:43:31.322Z,37.27
2018-03-30T00:45:57.424Z,42.23
2018-03-30T00:48:23.478Z,41.00
2018-03-30T00:50:49.510Z,40.47
2018-03-30T00:53:27.909Z,41.53
2018-03-30T00:55:54.007Z,39.07
2018-03-30T00:58:20.057Z,46.83
2018-03-30T01:00:46.084Z,41.73
2018-03-30T01:03:12.143Z,41.47
2018-03-30T01:05:38.918Z,45.47
2018-03-30T01:08:04.962Z,50.07
2018-03-30T01:10:30.985Z,39.03
2018-03-30T01:12:57.806Z,47.73
2018-03-30T01:15:24.095Z,47.07
2018-03-30T01:17:50.483Z,48.00
2018-03-30T01:20:16.527Z,56.07
2018-03-30T01:22:42.555Z,48.03
2018-03-30T01:25:08.674Z,51.40
2018-03-30T01:27:34.700Z,51.13
2018-03-30T01:30:00.835Z,47.80
2018-03-30T01:32:26.931Z,48.80
2018-03-30T01:34:52.958Z,54.50
2018-03-30T01:37:18.983Z,52.07
2018-03-30T01:39:45.014Z,49.97
2018-03-30T01:42:11.795Z,54.50
2018-03-30T01:44:38.542Z,47.63
2018-03-30T01:47:04.650Z,55.30
2018-03-30T01:49:30.739Z,51.23
2018-03-30T01:51:57.582Z,49.87
2018-03-30T01:54:23.614Z,51.07
2018-03-30T01:56:49.715Z,47.30
2018-03-30T01:59:15.742Z,55.13
2018-03-30T02:01:41.771Z,47.40
2018-03-30T02:04:07.821Z,59.00
2018-03-30T02:06:33.849Z,54.53
2018-03-30T02:09:00.091Z,53.97
2018-03-30T02:11:26.162Z,46.27
2018-03-30T02:13:52.237Z,54.90
2018-03-30T02:16:19.033Z,47.03
2018-03-30T02:18:45.088Z,50.83
2018-03-30T02:21:11.135Z,53.27
2018-03-30T02:23:37.176Z,52.47
2018-03-30T02:26:03.219Z,52.03
2018-03-30T02:28:30.011Z,48.53
2018-03-30T02:30:56.055Z,58.03
2018-03-30T02:33:22.126Z,54.83
2018-03-30T02:35:48.176Z,51.37
2018-03-30T02:38:14.348Z,48.03
2018-03-30T02:40:40.376Z,49.33
2018-03-30T02:43:07.242Z,50.77
2018-03-30T02:45:33.276Z,49.03
2018-03-30T02:48:00.072Z,54.70
2018-03-30T02:50:26.132Z,46.47
2018-03-30T02:52:52.199Z,42.77
2018-03-30T02:55:18.259Z,47.67
2018-03-30T02:57:45.188Z,46.03
2018-03-30T03:00:11.986Z,51.53
2018-03-30T03:02:38.043Z,53.67
2018-03-30T03:05:04.135Z,49.97
2018-03-30T03:07:30.203Z,48.00
2018-03-30T03:09:56.259Z,44.47
2018-03-30T03:12:22.407Z,47.80
2018-03-30T03:14:48.479Z,45.90
2018-03-30T03:17:15.320Z,44.13
2018-03-30T03:19:41.408Z,48.17
2018-03-30T03:22:07.467Z,53.13
2018-03-30T03:24:33.491Z,46.87
2018-03-30T03:26:59.563Z,46.40
2018-03-30T03:29:25.655Z,49.70
2018-03-30T03:31:51.663Z,44.87
2018-03-30T03:34:18.460Z,43.33
2018-03-30T03:36:45.473Z,48.20
2018-03-30T03:39:11.548Z,40.50
2018-03-30T03:41:37.615Z,38.73
2018-03-30T03:44:03.643Z,45.40
2018-03-30T03:46:29.721Z,40.50
2018-03-30T03:48:56.502Z,38.57
2018-03-30T03:51:22.761Z,35.97
2018-03-30T03:53:48.839Z,35.20
2018-03-30T03:56:15.682Z,45.63
2018-03-30T03:58:41.709Z,35.23
2018-03-30T04:01:07.788Z,38.93
2018-03-30T04:03:34.550Z,35.47
2018-03-30T04:06:00.573Z,38.60
2018-03-30T04:08:26.612Z,40.87
2018-03-30T04:10:53.419Z,37.33
2018-03-30T04:13:19.479Z,35.17
2018-03-30T04:15:45.518Z,33.37
2018-03-30T04:18:11.617Z,42.23
2018-03-30T04:20:37.665Z,39.47
2018-03-30T04:23:03.730Z,38.10
2018-03-30T04:25:29.793Z,36.03
2018-03-30T04:27:56.849Z,32.07
2018-03-30T04:30:23.634Z,40.90
2018-03-30T04:32:49.702Z,37.27
2018-03-30T04:35:15.974Z,34.30
2018-03-30T04:37:42.004Z,37.23
2018-03-30T04:40:08.043Z,35.07
2018-03-30T04:42:34.112Z,32.13
2018-03-30T04:45:00.163Z,35.03
2018-03-30T04:47:26.182Z,36.83
2018-03-30T04:49:53.113Z,36.57
2018-03-30T04:52:19.156Z,38.37
2018-03-30T04:54:45.198Z,41.00
2018-03-30T04:57:12.025Z,31.23
2018-03-30T04:59:38.059Z,37.60
2018-03-30T05:02:04.143Z,31.63
2018-03-30T05:04:30.223Z,30.53
2018-03-30T05:06:57.150Z,34.93
2018-03-30T05:09:23.431Z,35.47
2018-03-30T05:11:49.503Z,34.13
2018-03-30T05:14:15.488Z,36.63
2018-03-30T05:16:41.931Z,37.30
2018-03-30T05:19:08.067Z,31.93
2018-03-30T05:21:34.104Z,43.73
2018-03-30T05:24:00.174Z,54.70
2018-03-30T05:26:26.238Z,36.93
2018-03-30T05:28:53.060Z,36.07
2018-03-30T05:31:19.362Z,41.97
2018-03-30T05:33:45.407Z,37.63
2018-03-30T05:36:11.502Z,37.20
2018-03-30T05:38:37.695Z,45.70
2018-03-30T05:41:03.751Z,37.53
2018-03-30T05:43:29.778Z,40.37
2018-03-30T05:45:55.826Z,35.17
2018-03-30T05:48:21.984Z,39.17
2018-03-30T05:50:48.791Z,40.03
2018-03-30T05:53:14.855Z,37.87
2018-03-30T05:55:41.054Z,36.07
2018-03-30T05:58:07.123Z,34.87
2018-03-30T06:00:33.165Z,32.93
2018-03-30T06:02:59.191Z,33.40
2018-03-30T06:05:25.266Z,32.37
2018-03-30T06:07:51.354Z,31.57
2018-03-30T06:10:18.096Z,33.13
2018-03-30T06:12:44.155Z,32.90
2018-03-30T06:15:10.328Z,33.97
2018-03-30T06:17:36.363Z,35.77
2018-03-30T06:20:02.551Z,29.77
2018-03-30T06:22:28.579Z,30.27
2018-03-30T06:24:55.362Z,29.90
2018-03-30T06:27:21.428Z,27.27
2018-03-30T06:29:47.478Z,29.97
2018-03-30T06:32:13.517Z,34.20
2018-03-30T06:34:39.546Z,32.30
2018-03-30T06:37:05.643Z,30.20
2018-03-30T06:39:31.747Z,27.07
2018-03-30T06:41:57.817Z,29.20
2018-03-30T06:44:23.903Z,27.50
2018-03-30T06:46:49.945Z,28.07
2018-03-30T06:49:15.983Z,27.60
2018-03-30T06:51:41.994Z,26.47
2018-03-30T06:54:08.083Z,26.63
2018-03-30T06:56:34.274Z,24.70
2018-03-30T06:59:00.346Z,25.87
2018-03-30T07:01:27.112Z,30.83
2018-03-30T07:03:53.970Z,33.50
2018-03-30T07:06:20.040Z,29.23
2018-03-30T07:08:46.100Z,24.37
2018-03-30T07:11:12.134Z,19.80
2018-03-30T07:13:38.155Z,19.90
2018-03-30T07:16:04.249Z,20.47
2018-03-30T07:18:30.263Z,17.40
2018-03-30T07:20:56.314Z,20.90
2018-03-30T07:23:23.155Z,18.73
2018-03-30T07:25:49.283Z,20.70
2018-03-30T07:28:15.358Z,14.20
2018-03-30T07:30:42.141Z,17.40
2018-03-30T07:33:08.197Z,17.27
2018-03-30T07:35:34.244Z,20.90
2018-03-30T07:38:00.290Z,19.07
2018-03-30T07:40:26.333Z,19.27
2018-03-30T07:42:52.459Z,19.20
2018-03-30T07:45:18.518Z,16.20
2018-03-30T07:47:44.583Z,16.40
2018-03-30T07:50:11.376Z,19.40
2018-03-30T07:52:38.215Z,14.80
2018-03-30T07:55:04.279Z,13.70
2018-03-30T07:57:30.299Z,13.90
2018-03-30T07:59:56.358Z,12.57
2018-03-30T08:02:22.418Z,13.50
2018-03-30T08:04:49.252Z,11.27
2018-03-30T08:07:15.335Z,13.17
2018-03-30T08:09:41.367Z,11.90
2018-03-30T08:12:08.148Z,13.37
2018-03-30T08:14:34.203Z,13.70
2018-03-30T08:17:00.235Z,12.40
2018-03-30T08:19:26.290Z,11.53
2018-03-30T08:21:52.354Z,11.40
2018-03-30T08:24:18.734Z,12.60
2018-03-30T08:26:44.779Z,11.33
2018-03-30T08:29:13.619Z,11.47
2018-03-30T08:31:40.475Z,11.33
2018-03-30T08:34:06.509Z,11.00
2018-03-30T08:36:32.591Z,11.40
2018-03-30T08:38:58.671Z,11.77
2018-03-30T08:41:25.430Z,10.53
2018-03-30T08:43:51.537Z,12.50
2018-03-30T08:46:17.656Z,12.80
2018-03-30T08:48:43.702Z,12.33
2018-03-30T08:51:09.804Z,12.50
2018-03-30T08:53:36.640Z,12.00
2018-03-30T08:56:02.675Z,12.63
2018-03-30T08:58:28.740Z,11.40
2018-03-30T09:00:55.107Z,16.13
2018-03-30T09:03:21.111Z,12.93
2018-03-30T09:05:47.873Z,10.73
2018-03-30T09:08:14.660Z,12.23
2018-03-30T09:10:40.711Z,10.47
2018-03-30T09:13:06.757Z,11.20
2018-03-30T09:15:32.815Z,12.27
2018-03-30T09:17:58.862Z,12.60
2018-03-30T09:20:24.958Z,15.50
2018-03-30T09:22:51.023Z,12.67
2018-03-30T09:25:17.058Z,14.50
2018-03-30T09:27:43.115Z,13.10
2018-03-30T09:30:09.878Z,11.10
2018-03-30T09:32:36.713Z,11.03
2018-03-30T09:35:02.766Z,15.40
2018-03-30T09:37:29.548Z,13.50
2018-03-30T09:39:55.604Z,12.30
2018-03-30T09:42:21.862Z,16.53
2018-03-30T09:44:47.920Z,11.70
2018-03-30T09:47:13.951Z,11.67
2018-03-30T09:49:40.023Z,13.90
2018-03-30T09:52:06.823Z,11.70
2018-03-30T09:54:32.903Z,10.03
2018-03-30T09:56:59.295Z,13.23
2018-03-30T09:59:25.366Z,15.47
2018-03-30T10:01:51.444Z,12.70
2018-03-30T10:04:17.524Z,11.70
2018-03-30T10:06:43.586Z,14.00
2018-03-30T10:09:09.612Z,16.00
2018-03-30T10:11:35.687Z,11.93
2018-03-30T10:14:02.558Z,17.33
2018-03-30T10:16:28.900Z,16.97
2018-03-30T10:18:55.759Z,13.83
2018-03-30T10:21:21.806Z,13.70
2018-03-30T10:23:48.146Z,12.27
2018-03-30T10:26:14.162Z,11.23
2018-03-30T10:31:13.074Z,13.47
2018-03-30T10:33:39.095Z,12.70
2018-03-30T10:36:05.146Z,13.53
2018-03-30T10:38:31.234Z,16.40
2018-03-30T10:40:57.270Z,12.57
2018-03-30T10:43:23.315Z,13.30
2018-03-30T10:45:49.514Z,15.87
2018-03-30T10:48:16.317Z,13.47
2018-03-30T10:50:42.362Z,13.40
2018-03-30T10:53:08.426Z,15.30
2018-03-30T10:55:34.467Z,12.73
2018-03-30T10:58:00.553Z,15.30
2018-03-30T11:00:26.602Z,13.10
2018-03-30T11:02:52.624Z,14.63
2018-03-30T11:05:18.842Z,10.10
2018-03-30T11:07:44.891Z,12.40
2018-03-30T11:10:11.002Z,10.97
2018-03-30T11:12:37.820Z,16.50
2018-03-30T11:15:03.947Z,16.80
2018-03-30T11:17:30.218Z,12.93
2018-03-30T11:19:56.330Z,16.07
2018-03-30T11:22:22.448Z,13.17
2018-03-30T11:24:48.484Z,15.33
2018-03-30T11:27:14.592Z,12.73
2018-03-30T11:29:41.442Z,13.47
2018-03-30T11:32:08.228Z,13.00
2018-03-30T11:34:34.307Z,16.70
2018-03-30T11:37:00.400Z,12.43
2018-03-30T11:39:26.465Z,53.33
2018-03-30T11:41:52.596Z,33.77
2018-03-30T11:44:19.131Z,11.90
2018-03-30T11:46:45.231Z,15.60
2018-03-30T11:49:11.282Z,13.53
2018-03-30T11:51:38.091Z,14.57
2018-03-30T11:54:04.144Z,14.50
2018-03-30T11:56:30.271Z,18.17
2018-03-30T11:58:56.319Z,15.50
2018-03-30T12:01:22.530Z,13.30
2018-03-30T12:03:48.614Z,14.50
2018-03-30T12:06:14.646Z,15.60
2018-03-30T12:08:40.771Z,14.63
2018-03-30T12:11:06.800Z,16.20
2018-03-30T12:13:32.851Z,17.73
2018-03-30T12:15:58.898Z,16.70
2018-03-30T12:18:25.726Z,17.53
2018-03-30T12:20:51.834Z,16.70
2018-03-30T12:23:17.891Z,18.53
2018-03-30T12:25:44.711Z,15.10
2018-03-30T12:28:10.822Z,14.40
2018-03-30T12:30:36.865Z,17.23
2018-03-30T12:33:02.986Z,16.27
2018-03-30T12:35:29.107Z,15.50
2018-03-30T12:37:55.267Z,18.93
2018-03-30T12:40:21.302Z,16.57
2018-03-30T12:42:47.338Z,15.30
2018-03-30T12:45:13.416Z,16.00
2018-03-30T12:47:39.482Z,15.20
2018-03-30T12:50:05.560Z,16.67
2018-03-30T12:52:31.630Z,14.93
2018-03-30T12:54:57.668Z,14.67
2018-03-30T12:57:24.454Z,13.27
2018-03-30T12:59:50.515Z,16.80
2018-03-30T13:02:16.640Z,12.77
2018-03-30T13:04:42.680Z,15.00
2018-03-30T13:07:08.751Z,15.00
2018-03-30T13:09:35.572Z,16.27
2018-03-30T13:12:01.698Z,16.37
2018-03-30T13:14:27.766Z,13.63
2018-03-30T13:16:53.803Z,15.37
2018-03-30T13:19:19.930Z,16.50
2018-03-30T13:21:46.056Z,15.17
2018-03-30T13:24:12.088Z,12.90
2018-03-30T13:26:38.219Z,15.40
2018-03-30T13:29:04.967Z,14.50
2018-03-30T13:31:31.053Z,13.97
2018-03-30T13:33:57.183Z,12.33
2018-03-30T13:36:23.289Z,12.07
2018-03-30T13:38:49.419Z,14.10
2018-03-30T13:41:15.451Z,14.53
2018-03-30T13:43:41.584Z,13.10
2018-03-30T13:46:07.700Z,14.43
2018-03-30T13:48:34.546Z,14.10
2018-03-30T13:51:14.402Z,11.83
2018-03-30T13:53:43.408Z,12.10
2018-03-30T13:56:13.096Z,11.30
2018-03-30T13:58:39.178Z,10.57
2018-03-30T14:01:15.922Z,13.07
2018-03-30T14:03:48.746Z,13.63
2018-03-30T14:09:17.409Z,10.50
2018-03-30T14:11:45.935Z,12.50
2018-03-30T14:14:12.000Z,9.50
2018-03-30T14:16:38.992Z,9.70
2018-03-30T14:22:16.353Z,8.63
2018-03-30T14:24:44.527Z,8.50
2018-03-30T14:27:28.122Z,9.90
2018-03-30T14:29:56.229Z,8.80
2018-03-30T14:32:30.092Z,17.27
2018-03-30T14:35:00.275Z,8.37
2018-03-30T14:37:31.287Z,8.40
2018-03-30T14:40:05.542Z,8.67
2018-03-30T14:42:34.979Z,8.60
2018-03-30T14:45:10.099Z,9.03
2018-03-30T14:47:46.159Z,9.93
2018-03-30T14:50:18.039Z,11.20
2018-03-30T14:52:45.118Z,9.93
2018-03-30T14:55:19.127Z,8.33
2018-03-30T14:58:01.243Z,7.50
2018-03-30T15:00:34.312Z,12.30
2018-03-30T15:03:03.054Z,9.07
2018-03-30T15:05:36.960Z,9.60
2018-03-30T15:08:11.104Z,10.40
2018-03-30T15:13:40.857Z,7.63
2018-03-30T15:16:22.741Z,8.37
2018-03-30T15:18:50.456Z,11.70
2018-03-30T15:21:19.357Z,9.77
2018-03-30T15:23:47.328Z,7.40
2018-03-30T15:26:17.161Z,10.93
2018-03-30T15:28:48.405Z,11.50
2018-03-30T15:31:21.345Z,12.77
2018-03-30T15:33:48.664Z,9.20
2018-03-30T15:36:45.490Z,12.07
2018-03-30T15:39:11.584Z,8.87
2018-03-30T15:41:41.429Z,9.40
2018-03-30T15:44:07.650Z,12.90
2018-03-30T15:46:49.641Z,16.43
2018-03-30T15:49:15.724Z,10.00
2018-03-30T15:51:44.667Z,9.07
2018-03-30T15:54:11.673Z,9.70
2018-03-30T15:56:39.549Z,10.57
2018-03-30T15:59:05.590Z,9.60
2018-03-30T16:01:31.890Z,11.43
2018-03-30T16:03:58.519Z,16.53
2018-03-30T16:06:24.691Z,13.83
2018-03-30T16:08:50.814Z,15.87
2018-03-30T16:11:17.976Z,13.57
2018-03-30T16:13:44.184Z,14.60
2018-03-30T16:16:10.412Z,14.80
2018-03-30T16:18:49.132Z,14.10
2018-03-30T16:21:15.043Z,18.60
2018-03-30T16:23:40.983Z,14.73
2018-03-30T16:26:06.979Z,10.90
2018-03-30T16:28:32.943Z,11.87
2018-03-30T16:31:00.516Z,9.90
2018-03-30T16:33:26.470Z,11.53
2018-03-30T16:35:52.391Z,13.80
2018-03-30T16:38:18.315Z,11.53
2018-03-30T16:40:44.347Z,14.00
2018-03-30T16:43:11.009Z,14.67
2018-03-30T16:45:37.746Z,10.80
2018-03-30T16:48:03.703Z,12.83
2018-03-30T16:50:29.611Z,12.73
2018-03-30T16:52:55.494Z,11.80
2018-03-30T16:55:21.421Z,11.27
2018-03-30T16:57:47.321Z,11.67
2018-03-30T17:00:14.039Z,13.90
2018-03-30T17:02:40.000Z,20.60
2018-03-30T17:05:05.923Z,11.50
2018-03-30T17:07:31.844Z,16.90
2018-03-30T17:09:57.759Z,12.50
2018-03-30T17:12:23.715Z,13.60
2018-03-30T17:14:49.639Z,8.80
2018-03-30T17:17:15.585Z,11.93
2018-03-30T17:19:41.554Z,12.00
2018-03-30T17:22:08.356Z,16.23
2018-03-30T17:24:34.243Z,12.20
2018-03-30T17:27:00.135Z,14.73
2018-03-30T17:29:26.247Z,10.00
2018-03-30T17:31:52.125Z,10.27
2018-03-30T17:34:18.006Z,10.20
2018-03-30T17:36:43.923Z,12.47
2018-03-30T17:39:10.561Z,11.87
2018-03-30T17:41:37.203Z,14.27
2018-03-30T17:44:03.118Z,11.20
2018-03-30T17:46:29.748Z,17.23
2018-03-30T17:48:55.626Z,10.30
2018-03-30T17:51:22.303Z,10.97
2018-03-30T17:53:48.220Z,9.73
2018-03-30T17:56:15.076Z,14.13
2018-03-30T17:58:41.777Z,15.00
2018-03-30T18:01:07.676Z,13.07
2018-03-30T18:03:34.334Z,10.60
2018-03-30T18:06:00.252Z,9.40
2018-03-30T18:08:26.196Z,9.43
2018-03-30T18:10:52.895Z,14.67
2018-03-30T18:13:18.823Z,17.40
2018-03-30T18:15:44.806Z,20.33
2018-03-30T18:18:11.440Z,17.87
2018-03-30T18:20:37.351Z,21.50
2018-03-30T18:23:03.317Z,18.47
2018-03-30T18:25:29.225Z,17.57
2018-03-30T18:27:55.124Z,15.80
2018-03-30T18:30:21.038Z,17.37
2018-03-30T18:32:48.039Z,15.30
2018-03-30T18:35:13.934Z,31.83
2018-03-30T18:37:39.855Z,19.93
2018-03-30T18:40:05.776Z,19.60
2018-03-30T18:42:31.646Z,12.10
2018-03-30T18:44:57.591Z,15.50
2018-03-30T18:47:23.576Z,12.97
2018-03-30T18:49:50.208Z,13.27
2018-03-30T18:52:16.090Z,19.60
2018-03-30T18:54:42.028Z,20.93
2018-03-30T18:57:07.947Z,16.47
2018-03-30T18:59:33.867Z,16.80
2018-03-30T19:02:00.605Z,17.60
2018-03-30T19:04:26.524Z,19.70
2018-03-30T19:06:53.321Z,20.50
2018-03-30T19:09:19.966Z,16.10
2018-03-30T19:11:46.590Z,15.90
2018-03-30T19:14:12.773Z,17.63
2018-03-30T19:16:39.412Z,19.23
2018-03-30T19:19:06.073Z,17.93
2018-03-30T19:21:32.711Z,15.40
2018-03-30T19:23:59.352Z,20.73
2018-03-30T19:26:25.243Z,16.60
2018-03-30T19:28:51.264Z,16.80
2018-03-30T19:31:17.163Z,18.93
2018-03-30T19:33:43.786Z,25.03
2018-03-30T19:36:09.660Z,16.77
2018-03-30T19:38:36.326Z,17.00
2018-03-30T19:41:02.282Z,18.60
2018-03-30T19:43:28.882Z,18.60
2018-03-30T19:45:55.524Z,18.47
2018-03-30T19:48:21.411Z,21.13
2018-03-30T19:50:47.410Z,19.87
2018-03-30T19:53:13.289Z,18.80
2018-03-30T19:55:39.158Z,14.53
2018-03-30T19:58:05.198Z,15.27
2018-03-30T20:00:31.109Z,16.30
2018-03-30T20:02:57.791Z,18.20
2018-03-30T20:05:24.422Z,21.97
2018-03-30T20:07:50.342Z,25.30
2018-03-30T20:10:16.960Z,18.07
2018-03-30T20:12:42.866Z,15.70
2018-03-30T20:15:09.485Z,18.83
2018-03-30T20:17:35.374Z,17.80
2018-03-30T20:20:01.338Z,15.50
2018-03-30T20:22:27.343Z,17.00
2018-03-30T20:24:53.423Z,16.43
2018-03-30T20:27:19.327Z,15.40
2018-03-30T20:29:45.270Z,14.27
2018-03-30T20:32:11.148Z,17.60
2018-03-30T20:34:38.048Z,19.20
2018-03-30T20:37:03.961Z,18.13
2018-03-30T20:39:29.901Z,16.73
2018-03-30T20:41:55.963Z,20.27
2018-03-30T20:44:21.885Z,15.13
2018-03-30T20:46:47.862Z,19.37
2018-03-30T20:49:13.770Z,23.70
2018-03-30T20:51:39.663Z,16.50
2018-03-30T20:54:06.638Z,17.73
2018-03-30T20:56:32.556Z,18.43
2018-03-30T20:58:59.207Z,16.30
2018-03-30T21:01:26.782Z,18.27
2018-03-30T21:03:52.765Z,17.60
2018-03-30T21:06:18.666Z,16.60
2018-03-30T21:08:44.563Z,18.33
2018-03-30T21:11:10.455Z,15.97
2018-03-30T21:13:36.393Z,16.53
2018-03-30T21:16:02.286Z,17.70
2018-03-30T21:18:28.237Z,17.53
2018-03-30T21:20:54.142Z,19.90
2018-03-30T21:23:20.778Z,16.50
2018-03-30T21:25:46.814Z,19.17
2018-03-30T21:28:12.720Z,19.70
2018-03-30T21:30:38.617Z,18.07
2018-03-30T21:33:04.655Z,19.03
2018-03-30T21:35:30.597Z,15.33
2018-03-30T21:37:56.475Z,17.70
2018-03-30T21:40:22.399Z,17.70
2018-03-30T21:42:48.319Z,20.17
2018-03-30T21:45:14.204Z,16.27
2018-03-30T21:47:40.852Z,16.40
2018-03-30T21:50:07.554Z,16.83
2018-03-30T21:52:33.487Z,16.50
2018-03-30T21:54:59.381Z,17.80
2018-03-30T21:57:26.029Z,14.03
2018-03-30T21:59:52.701Z,20.53
2018-03-30T22:02:18.604Z,16.10
2018-03-30T22:04:44.524Z,17.73
2018-03-30T22:07:10.441Z,21.70
2018-03-30T22:09:36.346Z,16.60
2018-03-30T22:12:02.290Z,16.70
2018-03-30T22:14:28.172Z,17.33
2018-03-30T22:16:54.831Z,14.20
2018-03-30T22:19:20.725Z,12.83
2018-03-30T22:21:46.625Z,16.63
2018-03-30T22:24:12.508Z,15.63
2018-03-30T22:26:38.434Z,14.03
2018-03-30T22:29:04.356Z,15.67
2018-03-30T22:31:30.259Z,13.30
2018-03-30T22:33:56.146Z,15.40
2018-03-30T22:36:22.025Z,15.80
2018-03-30T22:38:48.018Z,13.43
2018-03-30T22:41:13.888Z,15.67
2018-03-30T22:43:39.808Z,14.17
2018-03-30T22:46:06.485Z,13.80
2018-03-30T22:48:32.400Z,15.87
2018-03-30T22:50:59.043Z,16.50
2018-03-30T22:53:25.899Z,13.60
2018-03-30T22:55:52.538Z,12.97
2018-03-30T22:58:18.544Z,12.93
2018-03-30T23:00:44.465Z,13.40
2018-03-30T23:03:10.383Z,20.97
2018-03-30T23:05:36.319Z,14.37
2018-03-30T23:08:02.222Z,15.03
2018-03-30T23:10:29.092Z,14.70
2018-03-30T23:12:55.706Z,13.40
2018-03-30T23:15:21.657Z,17.37
2018-03-30T23:17:47.729Z,13.97
2018-03-30T23:20:13.607Z,17.17
2018-03-30T23:22:39.508Z,15.77
2018-03-30T23:25:05.594Z,16.10
2018-03-30T23:27:31.489Z,15.20
2018-03-30T23:29:57.402Z,15.17
2018-03-30T23:32:23.332Z,17.60
2018-03-30T23:34:49.227Z,20.07
2018-03-30T23:37:15.110Z,15.53
2018-03-30T23:39:41.163Z,17.27
2018-03-30T23:42:07.052Z,16.00
2018-03-30T23:44:33.694Z,16.27
2018-03-30T23:47:00.413Z,16.83
2018-03-30T23:49:26.328Z,23.87
2018-03-30T23:51:52.282Z,15.33
2018-03-30T23:54:18.191Z,17.60
2018-03-30T23:56:44.092Z,14.53
2018-03-30T23:59:09.989Z,18.57
